createdAt,value
2022-12-25T00:00:20.397Z,5.89
2022-12-25T00:03:35.804Z,5.79
2022-12-25T00:06:23.689Z,5.68
2022-12-25T00:09:18.783Z,5.60
2022-12-25T00:12:13.867Z,5.56
2022-12-25T00:15:08.893Z,5.58
2022-12-25T00:18:03.676Z,5.64
2022-12-25T00:20:58.665Z,5.68
2022-12-25T00:23:47.265Z,5.65
2022-12-25T00:26:30.657Z,5.61
2022-12-25T00:29:26.693Z,5.60
2022-12-25T00:32:21.684Z,5.62
2022-12-25T00:35:17.688Z,5.63
2022-12-25T00:38:06.088Z,5.61
2022-12-25T00:40:53.692Z,5.61
2022-12-25T00:43:36.677Z,5.59
2022-12-25T00:46:31.673Z,5.56
2022-12-25T00:49:20.677Z,5.53
2022-12-25T00:51:56.754Z,5.50
2022-12-25T00:54:44.683Z,5.48
2022-12-25T00:57:20.208Z,5.48
2022-12-25T01:00:07.703Z,5.49
2022-12-25T01:03:02.969Z,5.49
2022-12-25T01:05:51.647Z,5.50
2022-12-25T01:08:25.811Z,5.49
2022-12-25T01:11:15.669Z,5.45
2022-12-25T01:13:50.996Z,5.38
2022-12-25T01:16:40.714Z,5.30
2022-12-25T01:19:16.011Z,5.27
2022-12-25T01:22:03.669Z,5.23
2022-12-25T01:24:38.846Z,5.20
2022-12-25T01:27:26.670Z,5.15
2022-12-25T01:30:08.666Z,5.08
2022-12-25T01:32:50.129Z,5.01
2022-12-25T01:35:38.649Z,4.94
2022-12-25T01:38:27.437Z,4.86
2022-12-25T01:41:17.649Z,4.77
2022-12-25T01:44:09.806Z,4.70
2022-12-25T01:47:04.677Z,4.65
2022-12-25T01:50:01.710Z,4.61
2022-12-25T01:52:56.654Z,4.62
2022-12-25T01:55:51.654Z,4.66
2022-12-25T01:58:39.639Z,4.72
2022-12-25T02:01:14.921Z,4.76
2022-12-25T02:04:09.652Z,4.78
2022-12-25T02:06:43.805Z,4.78
2022-12-25T02:09:31.670Z,4.77
2022-12-25T02:12:13.835Z,4.77
2022-12-25T02:15:14.849Z,4.78
2022-12-25T02:18:15.746Z,4.77
2022-12-25T02:20:50.963Z,4.72
2022-12-25T02:24:16.636Z,4.66
2022-12-25T02:27:21.653Z,4.61
2022-12-25T02:30:22.635Z,4.54
2022-12-25T02:33:50.646Z,4.51
2022-12-25T02:36:47.639Z,4.53
2022-12-25T02:40:05.864Z,4.61
2022-12-25T02:43:16.854Z,4.67
2022-12-25T02:46:13.298Z,4.71
2022-12-25T02:49:30.648Z,4.75
2022-12-25T02:52:31.277Z,4.85
2022-12-25T02:55:40.652Z,4.97
2022-12-25T02:58:40.326Z,5.04
2022-12-25T03:01:48.795Z,5.07
2022-12-25T03:04:44.264Z,5.06
2022-12-25T03:07:33.655Z,5.11
2022-12-25T03:10:31.311Z,5.19
2022-12-25T03:13:26.660Z,5.26
2022-12-25T03:16:39.686Z,5.30
2022-12-25T03:19:55.837Z,5.32
2022-12-25T03:23:09.832Z,5.35
2022-12-25T03:26:23.744Z,5.29
2022-12-25T03:29:38.716Z,5.17
2022-12-25T03:32:43.654Z,5.03
2022-12-25T03:35:50.626Z,4.93
2022-12-25T03:38:57.649Z,4.86
2022-12-25T03:42:12.632Z,4.83
2022-12-25T03:45:31.672Z,4.82
2022-12-25T03:48:19.635Z,4.89
2022-12-25T03:51:20.294Z,4.97
2022-12-25T03:54:31.642Z,5.04
2022-12-25T03:57:25.271Z,5.06
2022-12-25T04:00:39.622Z,5.07
2022-12-25T04:03:46.749Z,5.11
2022-12-25T04:06:46.626Z,5.11
2022-12-25T04:10:16.643Z,5.10
2022-12-25T04:13:23.825Z,5.10
2022-12-25T04:16:24.734Z,5.13
2022-12-25T04:19:37.649Z,5.16
2022-12-25T04:22:50.654Z,5.18
2022-12-25T04:26:03.631Z,5.18
2022-12-25T04:29:16.652Z,5.20
2022-12-25T04:32:29.639Z,5.23
2022-12-25T04:35:43.842Z,5.28
2022-12-25T04:38:38.835Z,5.35
2022-12-25T04:41:26.633Z,5.47
2022-12-25T04:44:22.631Z,5.58
2022-12-25T04:47:17.612Z,5.67
2022-12-25T04:50:05.632Z,5.74
2022-12-25T04:52:44.761Z,5.79
2022-12-25T04:55:32.655Z,5.87
2022-12-25T04:58:07.747Z,5.94
2022-12-25T05:00:55.624Z,5.97
2022-12-25T05:03:36.767Z,6.00
2022-12-25T05:06:31.826Z,5.99
2022-12-25T05:09:26.668Z,5.96
2022-12-25T05:12:25.625Z,5.93
2022-12-25T05:15:13.627Z,5.82
2022-12-25T05:17:48.760Z,5.68
2022-12-25T05:20:43.641Z,5.49
2022-12-25T05:23:38.621Z,5.32
2022-12-25T05:26:30.616Z,5.19
2022-12-25T05:29:05.771Z,5.14
2022-12-25T05:31:53.620Z,5.10
2022-12-25T05:34:28.764Z,5.08
2022-12-25T05:37:16.620Z,5.10
2022-12-25T05:39:58.824Z,5.12
2022-12-25T05:42:53.613Z,5.20
2022-12-25T05:45:48.610Z,5.32
2022-12-25T05:48:43.613Z,5.40
2022-12-25T05:51:32.617Z,5.45
2022-12-25T05:54:07.780Z,5.50
2022-12-25T05:56:55.623Z,5.56
2022-12-25T05:59:30.773Z,5.65
2022-12-25T06:02:18.711Z,5.71
2022-12-25T06:04:53.764Z,5.75
2022-12-25T06:07:41.628Z,5.75
2022-12-25T06:10:16.753Z,5.76
2022-12-25T06:13:04.630Z,5.75
2022-12-25T06:15:59.829Z,5.76
2022-12-25T06:18:52.805Z,5.76
2022-12-25T06:21:27.741Z,5.68
2022-12-25T06:24:21.022Z,5.56
2022-12-25T06:26:57.753Z,5.47
2022-12-25T06:29:45.613Z,5.39
2022-12-25T06:32:19.762Z,5.31
2022-12-25T06:35:07.619Z,5.19
2022-12-25T06:38:03.592Z,5.12
2022-12-25T06:40:51.625Z,5.09
2022-12-25T06:43:46.611Z,5.10
2022-12-25T06:46:36.820Z,5.11
2022-12-25T06:49:11.793Z,5.12
2022-12-25T06:51:59.616Z,5.11
2022-12-25T06:54:35.783Z,5.12
2022-12-25T06:57:23.699Z,5.14
2022-12-25T06:59:58.770Z,5.15
2022-12-25T07:02:49.716Z,5.16
2022-12-25T07:05:24.980Z,5.17
2022-12-25T07:08:12.796Z,5.20
2022-12-25T07:10:55.799Z,5.29
2022-12-25T07:13:50.643Z,5.38
2022-12-25T07:16:45.665Z,5.49
2022-12-25T07:19:44.939Z,5.60
2022-12-25T07:22:42.806Z,5.71
2022-12-25T07:25:37.807Z,5.83
2022-12-25T07:28:25.598Z,5.97
2022-12-25T07:31:07.821Z,6.05
2022-12-25T07:34:02.799Z,6.14
2022-12-25T07:36:50.607Z,6.22
2022-12-25T07:39:25.827Z,6.26
2022-12-25T07:42:13.605Z,6.32
2022-12-25T07:45:08.592Z,6.36
2022-12-25T07:48:01.288Z,6.33
2022-12-25T07:50:39.741Z,6.24
2022-12-25T07:53:27.618Z,6.18
2022-12-25T07:56:08.767Z,6.16
2022-12-25T07:58:56.590Z,6.17
2022-12-25T08:01:39.768Z,6.20
2022-12-25T08:04:34.796Z,6.23
2022-12-25T08:07:22.940Z,6.29
2022-12-25T08:09:57.761Z,6.33
2022-12-25T08:12:45.599Z,6.39
2022-12-25T08:15:20.720Z,6.44
2022-12-25T08:18:08.600Z,6.46
2022-12-25T08:20:43.743Z,6.50
2022-12-25T08:23:31.595Z,6.54
2022-12-25T08:26:09.754Z,6.57
2022-12-25T08:29:04.578Z,6.61
2022-12-25T08:31:59.823Z,6.68
2022-12-25T08:34:54.580Z,6.78
2022-12-25T08:37:49.587Z,6.87
2022-12-25T08:40:37.805Z,6.93
2022-12-25T08:43:12.726Z,6.97
2022-12-25T08:46:07.695Z,7.03
2022-12-25T08:48:56.875Z,7.12
2022-12-25T08:51:33.102Z,7.16
2022-12-25T08:54:27.805Z,7.12
2022-12-25T08:57:22.784Z,7.12
2022-12-25T09:00:18.598Z,7.17
2022-12-25T09:03:13.609Z,7.24
2022-12-25T09:06:08.592Z,7.30
2022-12-25T09:09:03.678Z,7.46
2022-12-25T09:11:58.593Z,7.60
2022-12-25T09:14:53.570Z,7.71
2022-12-25T09:17:41.614Z,7.79
2022-12-25T09:20:36.581Z,7.88
2022-12-25T09:23:31.606Z,7.96
2022-12-25T09:26:28.577Z,8.02
2022-12-25T09:29:16.603Z,8.08
2022-12-25T09:31:51.846Z,8.09
2022-12-25T09:34:46.790Z,8.10
2022-12-25T09:37:35.603Z,8.19
2022-12-25T09:40:10.699Z,8.27
2022-12-25T09:43:09.547Z,8.35
2022-12-25T09:45:57.631Z,8.38
2022-12-25T09:48:41.573Z,8.40
2022-12-25T09:51:37.586Z,8.40
2022-12-25T09:54:29.617Z,8.43
2022-12-25T09:57:04.752Z,8.53
2022-12-25T09:59:54.586Z,8.65
2022-12-25T10:03:21.899Z,8.87
2022-12-25T10:06:12.723Z,9.07
2022-12-25T10:09:59.906Z,9.27
2022-12-25T10:13:00.770Z,9.43
2022-12-25T10:16:03.386Z,9.55
2022-12-25T10:19:04.636Z,9.67
2022-12-25T10:22:00.609Z,9.65
2022-12-25T10:25:06.567Z,9.45
2022-12-25T10:28:07.584Z,9.24
2022-12-25T10:30:56.659Z,9.10
2022-12-25T10:33:31.776Z,8.98
2022-12-25T10:36:20.633Z,8.91
2022-12-25T10:39:15.633Z,8.91
2022-12-25T10:42:29.588Z,8.93
2022-12-25T10:45:24.592Z,8.91
2022-12-25T10:48:19.606Z,8.93
2022-12-25T10:51:21.575Z,8.98
2022-12-25T10:54:18.600Z,9.08
2022-12-25T10:57:15.576Z,9.19
2022-12-25T11:00:10.606Z,9.27
2022-12-25T11:02:59.014Z,9.36
2022-12-25T11:05:34.743Z,9.45
2022-12-25T11:08:29.149Z,9.61
2022-12-25T11:11:10.692Z,9.84
2022-12-25T11:14:01.606Z,10.11
2022-12-25T11:16:56.571Z,10.34
2022-12-25T11:19:44.571Z,10.43
2022-12-25T11:22:24.707Z,10.51
2022-12-25T11:25:19.537Z,10.58
2022-12-25T11:28:03.795Z,10.71
2022-12-25T11:30:52.603Z,10.80
2022-12-25T11:33:28.769Z,10.75
2022-12-25T11:36:39.555Z,10.68
2022-12-25T11:39:41.090Z,10.58
2022-12-25T11:42:39.525Z,10.47
2022-12-25T11:45:49.579Z,10.37
2022-12-25T11:49:04.562Z,10.28
2022-12-25T11:52:01.792Z,10.19
2022-12-25T11:55:11.762Z,10.16
2022-12-25T11:58:09.536Z,10.16
2022-12-25T12:01:07.563Z,10.15
2022-12-25T12:04:02.593Z,10.11
2022-12-25T12:07:12.576Z,10.08
2022-12-25T12:10:16.567Z,10.06
2022-12-25T12:13:13.652Z,10.04
2022-12-25T12:15:57.880Z,10.03
2022-12-25T12:18:50.301Z,9.98
2022-12-25T12:21:36.946Z,9.92
2022-12-25T12:24:27.582Z,9.88
2022-12-25T12:27:26.571Z,9.83
2022-12-25T12:30:42.587Z,9.80
2022-12-25T12:33:35.601Z,9.75
2022-12-25T12:36:14.265Z,9.79
2022-12-25T12:39:07.223Z,9.85
2022-12-25T12:41:53.831Z,9.88
2022-12-25T12:44:43.669Z,9.89
2022-12-25T12:48:02.006Z,9.88
2022-12-25T12:50:56.572Z,9.85
2022-12-25T12:53:56.874Z,9.82
2022-12-25T12:56:51.651Z,9.79
2022-12-25T12:59:55.572Z,9.76
2022-12-25T13:02:59.079Z,9.74
2022-12-25T13:06:45.157Z,9.70
2022-12-25T13:09:55.602Z,9.64
2022-12-25T13:13:01.691Z,9.60
2022-12-25T13:15:59.586Z,9.57
2022-12-25T13:18:56.665Z,9.55
2022-12-25T13:21:53.552Z,9.59
2022-12-25T13:24:50.581Z,9.63
2022-12-25T13:27:48.671Z,9.69
2022-12-25T13:30:44.573Z,9.72
2022-12-25T13:33:39.903Z,9.77
2022-12-25T13:36:34.600Z,9.82
2022-12-25T13:39:31.833Z,9.83
2022-12-25T13:42:23.708Z,9.94
2022-12-25T13:45:36.585Z,10.04
2022-12-25T13:48:33.075Z,10.16
2022-12-25T13:51:29.611Z,10.23
2022-12-25T13:54:22.349Z,10.41
2022-12-25T13:57:05.579Z,10.56
2022-12-25T14:00:00.513Z,10.77
2022-12-25T14:02:55.873Z,10.99
2022-12-25T14:05:51.547Z,11.00
2022-12-25T14:08:47.783Z,10.99
2022-12-25T14:11:46.667Z,10.82
2022-12-25T14:14:42.569Z,10.57
2022-12-25T14:17:37.652Z,10.44
2022-12-25T14:20:42.672Z,10.58
2022-12-25T14:23:37.556Z,10.58
2022-12-25T14:26:38.544Z,10.27
2022-12-25T14:29:35.580Z,9.84
2022-12-25T14:32:26.546Z,9.43
2022-12-25T14:35:04.647Z,9.04
2022-12-25T14:37:53.650Z,8.64
2022-12-25T14:40:36.697Z,8.31
2022-12-25T14:43:32.557Z,8.03
2022-12-25T14:46:09.670Z,7.85
2022-12-25T14:49:12.552Z,7.69
2022-12-25T14:51:47.698Z,7.52
2022-12-25T14:54:35.636Z,7.34
2022-12-25T14:57:12.998Z,7.20
2022-12-25T15:00:04.615Z,7.07
2022-12-25T15:02:48.335Z,6.92
2022-12-25T15:05:42.736Z,6.75
2022-12-25T15:08:18.165Z,6.60
2022-12-25T15:11:07.557Z,6.37
2022-12-25T15:14:02.564Z,6.14
2022-12-25T15:17:08.523Z,5.89
2022-12-25T15:20:03.737Z,5.71
2022-12-25T15:26:13.562Z,5.48
2022-12-25T15:29:08.838Z,5.43
2022-12-25T15:31:56.668Z,5.34
2022-12-25T15:34:38.543Z,5.26
2022-12-25T15:37:33.522Z,5.17
2022-12-25T15:40:30.830Z,5.13
2022-12-25T15:43:42.889Z,5.13
2022-12-25T15:46:37.653Z,5.14
2022-12-25T15:49:32.536Z,5.16
2022-12-25T15:52:28.544Z,5.17
2022-12-25T15:55:16.567Z,5.12
2022-12-25T15:57:55.245Z,5.03
2022-12-25T16:00:43.529Z,4.93
2022-12-25T16:03:19.906Z,4.87
2022-12-25T16:06:07.642Z,4.87
2022-12-25T16:08:56.192Z,4.85
2022-12-25T16:11:45.554Z,4.77
2022-12-25T16:14:22.014Z,4.68
2022-12-25T16:17:11.245Z,4.59
2022-12-25T16:19:46.803Z,4.51
2022-12-25T16:22:35.554Z,4.47
2022-12-25T16:25:10.884Z,4.43
2022-12-25T16:27:58.733Z,4.45
2022-12-25T16:30:33.848Z,4.50
2022-12-25T16:33:22.500Z,4.55
2022-12-25T16:36:04.533Z,4.61
2022-12-25T16:39:01.718Z,4.67
2022-12-25T16:41:58.776Z,4.70
2022-12-25T16:44:53.537Z,4.71
2022-12-25T16:47:48.539Z,4.69
2022-12-25T16:50:43.537Z,4.75
2022-12-25T16:53:39.570Z,4.80
2022-12-25T16:56:36.536Z,4.83
2022-12-25T16:59:33.536Z,4.85
2022-12-25T17:02:31.056Z,4.86
2022-12-25T17:05:19.535Z,4.85
2022-12-25T17:07:55.064Z,4.81
2022-12-25T17:10:45.532Z,4.80
2022-12-25T17:13:20.675Z,4.84
2022-12-25T17:16:26.573Z,4.89
2022-12-25T17:19:25.003Z,4.96
2022-12-25T17:22:14.828Z,5.01
2022-12-25T17:24:52.023Z,5.03
2022-12-25T17:27:39.992Z,5.04
2022-12-25T17:30:17.661Z,5.03
2022-12-25T17:33:05.532Z,5.01
2022-12-25T17:35:57.338Z,5.03
2022-12-25T17:38:37.393Z,5.07
2022-12-25T17:41:27.540Z,5.08
2022-12-25T17:44:22.534Z,5.04
2022-12-25T17:47:20.621Z,5.03
2022-12-25T17:50:15.706Z,5.00
2022-12-25T17:53:03.493Z,4.95
2022-12-25T17:55:41.376Z,4.85
2022-12-25T17:58:30.092Z,4.75
2022-12-25T18:01:29.571Z,4.69
2022-12-25T18:04:24.606Z,4.64
2022-12-25T18:07:20.467Z,4.57
2022-12-25T18:10:15.578Z,4.50
2022-12-25T18:13:10.512Z,4.44
2022-12-25T18:16:05.567Z,4.38
2022-12-25T18:19:00.510Z,4.31
2022-12-25T18:21:55.525Z,4.25
2022-12-25T18:24:51.724Z,4.23
2022-12-25T18:27:46.512Z,4.23
2022-12-25T18:30:42.518Z,4.21
2022-12-25T18:33:37.722Z,4.18
2022-12-25T18:36:37.520Z,4.18
2022-12-25T18:39:32.450Z,4.18
2022-12-25T18:42:39.600Z,4.14
2022-12-25T18:45:24.508Z,4.08
2022-12-25T18:48:19.516Z,4.10
2022-12-25T18:51:20.505Z,4.15
2022-12-25T18:54:15.591Z,4.19
2022-12-25T18:57:07.313Z,4.18
2022-12-25T18:59:49.687Z,4.17
2022-12-25T19:02:37.694Z,4.13
2022-12-25T19:05:19.794Z,4.09
2022-12-25T19:08:20.818Z,4.06
2022-12-25T19:11:23.506Z,4.03
2022-12-25T19:14:11.519Z,3.98
2022-12-25T19:17:06.591Z,3.97
2022-12-25T19:19:54.487Z,3.97
2022-12-25T19:22:42.533Z,3.96
2022-12-25T19:25:31.510Z,3.95
2022-12-25T19:28:19.540Z,3.94
2022-12-25T19:31:02.546Z,3.91
2022-12-25T19:33:57.523Z,3.87
2022-12-25T19:36:52.496Z,3.85
2022-12-25T19:39:53.497Z,3.86
2022-12-25T19:42:49.381Z,3.89
2022-12-25T19:45:46.534Z,3.92
2022-12-25T19:48:41.505Z,3.90
2022-12-25T19:51:34.477Z,3.87
2022-12-25T19:54:10.629Z,3.81
2022-12-25T19:56:58.503Z,3.76
2022-12-25T19:59:53.504Z,3.76
2022-12-25T20:02:41.642Z,3.81
2022-12-25T20:05:16.918Z,3.82
2022-12-25T20:08:05.145Z,3.83
2022-12-25T20:10:39.615Z,3.84
2022-12-25T20:13:27.509Z,3.81
2022-12-25T20:16:10.610Z,3.76
2022-12-25T20:19:00.681Z,3.72
2022-12-25T20:21:35.638Z,3.69
2022-12-25T20:24:23.692Z,3.69
2022-12-25T20:26:59.715Z,3.68
2022-12-25T20:29:49.069Z,3.69
2022-12-25T20:32:24.319Z,3.69
2022-12-25T20:35:15.151Z,3.71
2022-12-25T20:38:04.473Z,3.77
2022-12-25T20:41:24.660Z,3.84
2022-12-25T20:44:03.479Z,3.93
2022-12-25T20:46:58.503Z,4.04
2022-12-25T20:49:48.950Z,4.13
2022-12-25T20:52:24.644Z,4.21
2022-12-25T20:55:14.163Z,4.28
2022-12-25T20:58:04.321Z,4.32
2022-12-25T21:01:01.446Z,4.32
2022-12-25T21:03:57.684Z,4.25
2022-12-25T21:06:53.786Z,4.18
2022-12-25T21:09:53.876Z,4.16
2022-12-25T21:12:48.483Z,4.15
2022-12-25T21:15:43.483Z,4.19
2022-12-25T21:18:44.429Z,4.17
2022-12-25T21:21:39.482Z,4.12
2022-12-25T21:24:39.024Z,4.08
2022-12-25T21:27:33.483Z,4.03
2022-12-25T21:30:32.520Z,3.99
2022-12-25T21:33:48.491Z,4.01
2022-12-25T21:36:48.598Z,4.01
2022-12-25T21:39:36.586Z,4.02
2022-12-25T21:42:11.695Z,3.99
2022-12-25T21:44:59.470Z,3.92
2022-12-25T21:48:01.564Z,3.85
2022-12-25T21:51:01.036Z,3.73
2022-12-25T21:53:42.492Z,3.59
2022-12-25T21:56:43.565Z,3.48
2022-12-25T21:59:32.490Z,3.47
2022-12-25T22:02:27.637Z,3.49
2022-12-25T22:05:42.473Z,3.45
2022-12-25T22:08:37.464Z,3.38
2022-12-25T22:12:07.482Z,3.31
2022-12-25T22:15:04.476Z,3.29
2022-12-25T22:18:10.516Z,3.33
2022-12-25T22:20:45.660Z,3.36
2022-12-25T22:23:33.690Z,3.42
2022-12-25T22:26:15.844Z,3.50
2022-12-25T22:29:06.652Z,3.57
2022-12-25T22:31:46.611Z,3.66
2022-12-25T22:34:35.487Z,3.80
2022-12-25T22:37:12.599Z,3.91
2022-12-25T22:40:00.463Z,4.02
2022-12-25T22:42:42.456Z,4.13
2022-12-25T22:45:37.475Z,4.27
2022-12-25T22:48:25.456Z,4.43
2022-12-25T22:51:20.460Z,4.58
2022-12-25T22:54:08.454Z,4.71
2022-12-25T22:56:49.516Z,4.78
2022-12-25T22:59:44.503Z,4.81
2022-12-25T23:02:32.787Z,4.82
2022-12-25T23:05:08.586Z,4.83
2022-12-25T23:07:56.477Z,4.85
2022-12-25T23:10:32.593Z,4.86
2022-12-25T23:13:39.450Z,4.91
2022-12-25T23:16:27.529Z,4.95
2022-12-25T23:19:45.454Z,5.02
2022-12-25T23:22:58.522Z,5.08
2022-12-25T23:26:05.456Z,5.13
2022-12-25T23:29:18.469Z,5.13
2022-12-25T23:32:06.474Z,5.13
2022-12-25T23:34:49.498Z,5.13
2022-12-25T23:37:44.504Z,5.13
2022-12-25T23:40:39.443Z,5.16
2022-12-25T23:43:34.461Z,5.21
2022-12-25T23:46:29.531Z,5.28
2022-12-25T23:49:17.522Z,5.37
2022-12-25T23:51:53.602Z,5.44
2022-12-25T23:54:41.683Z,5.50
2022-12-25T23:57:16.601Z,5.56
